Southington, Connecticut
Current Conditions -  °F | °C
As of 2:53 AM on Saturday 01 Nov 2014 (Local Time) from KMMK Reporting Station
Broken Clouds Broken Clouds  
Wind Chill: 41°   Ceiling: 5500
Heat Index: 45°   Visibility: 10mi
Dew Point: 38°   Wind: 8mph
Humidity: 76%   Direction: 10°N
Pressure: 29.88"   Gusts: NA
Location:  41.6°N, 72.88°W
Report Text: KMMK 010653Z AUTO 01007KT 10SM BKN055 07/03 A2988 RMK AO2 RAE04 SLP119 P0000 T00720033 TSNO
Loading
Personal Weather Stations






























Interactive Weather Map
Tropical Storm Tracking
New forecast layout! Learn more

10-Day Weather Forecast

Advertisements
Track Severe Weather on mobile